createdAt,value
2019-05-21T00:00:55.618Z,14.68
2019-05-21T00:03:26.013Z,14.28
2019-05-21T00:05:56.336Z,14.50
2019-05-21T00:08:26.759Z,14.25
2019-05-21T00:10:57.084Z,14.13
2019-05-21T00:13:27.372Z,13.83
2019-05-21T00:15:57.649Z,14.68
2019-05-21T00:18:27.938Z,14.28
2019-05-21T00:21:00.552Z,13.85
2019-05-21T00:23:31.103Z,13.05
2019-05-21T00:26:01.462Z,13.88
2019-05-21T00:28:39.683Z,13.90
2019-05-21T00:31:45.954Z,13.53
2019-05-21T00:34:52.633Z,12.73
2019-05-21T00:37:59.492Z,15.03
2019-05-21T00:41:05.505Z,13.65
2019-05-21T00:43:46.384Z,13.20
2019-05-21T00:46:16.997Z,12.20
2019-05-21T00:48:47.872Z,11.35
2019-05-21T00:51:19.634Z,11.80
2019-05-21T00:53:49.905Z,12.65
2019-05-21T00:56:20.222Z,12.47
2019-05-21T00:58:51.270Z,12.47
2019-05-21T01:01:21.915Z,11.73
2019-05-21T01:03:52.253Z,12.15
2019-05-21T01:06:22.593Z,12.90
2019-05-21T01:08:56.156Z,12.13
2019-05-21T01:11:26.488Z,12.07
2019-05-21T01:13:58.388Z,12.35
2019-05-21T01:16:28.739Z,12.60
2019-05-21T01:18:59.993Z,13.10
2019-05-21T01:21:30.319Z,12.33
2019-05-21T01:24:02.095Z,13.55
2019-05-21T01:26:32.476Z,12.80
2019-05-21T01:29:05.586Z,13.93
2019-05-21T01:31:37.722Z,14.03
2019-05-21T01:34:11.311Z,13.48
2019-05-21T01:36:42.487Z,13.72
2019-05-21T01:39:13.019Z,13.28
2019-05-21T01:41:43.324Z,13.88
2019-05-21T01:44:13.648Z,13.85
2019-05-21T01:46:44.416Z,13.85
2019-05-21T01:49:14.783Z,14.45
2019-05-21T01:51:45.102Z,13.88
2019-05-21T01:54:15.401Z,14.07
2019-05-21T01:56:45.713Z,13.78
2019-05-21T01:59:16.087Z,14.87
2019-05-21T02:01:47.613Z,14.60
2019-05-21T02:04:19.672Z,16.02
2019-05-21T02:06:50.225Z,15.20
2019-05-21T02:09:20.569Z,15.10
2019-05-21T02:11:51.227Z,15.30
2019-05-21T02:14:21.965Z,14.45
2019-05-21T02:16:52.252Z,15.30
2019-05-21T02:19:23.137Z,15.60
2019-05-21T02:21:53.456Z,15.05
2019-05-21T02:24:24.239Z,16.57
2019-05-21T02:26:54.604Z,15.60
2019-05-21T02:29:27.220Z,16.90
2019-05-21T02:31:57.495Z,15.23
2019-05-21T02:34:28.276Z,15.03
2019-05-21T02:36:58.593Z,15.38
2019-05-21T02:39:29.273Z,15.43
2019-05-21T02:41:59.616Z,13.95
2019-05-21T02:44:29.888Z,16.10
2019-05-21T02:47:00.169Z,15.10
2019-05-21T02:49:31.468Z,15.15
2019-05-21T02:52:01.813Z,15.08
2019-05-21T02:54:40.720Z,14.65
2019-05-21T02:57:04.741Z,15.00
2019-05-21T02:59:36.349Z,14.83
2019-05-21T03:02:14.760Z,14.95
2019-05-21T03:04:46.660Z,14.47
2019-05-21T03:07:19.803Z,14.58
2019-05-21T03:09:50.454Z,13.55
2019-05-21T03:12:20.802Z,14.13
2019-05-21T03:14:52.008Z,13.85
2019-05-21T03:17:22.868Z,14.30
2019-05-21T03:19:53.220Z,13.83
2019-05-21T03:22:23.545Z,14.38
2019-05-21T03:24:54.164Z,15.03
2019-05-21T03:27:24.918Z,13.60
2019-05-21T03:29:55.215Z,14.05
2019-05-21T03:32:25.579Z,13.40
2019-05-21T03:34:56.238Z,12.90
2019-05-21T03:37:26.945Z,12.98
2019-05-21T03:39:58.963Z,13.22
2019-05-21T03:42:31.765Z,13.03
2019-05-21T03:45:02.094Z,12.73
2019-05-21T03:47:35.126Z,11.88
2019-05-21T03:50:05.964Z,12.30
2019-05-21T03:52:36.251Z,11.70
2019-05-21T03:55:06.835Z,12.03
2019-05-21T03:57:37.564Z,11.30
2019-05-21T04:00:09.486Z,10.85
2019-05-21T04:02:42.939Z,11.43
2019-05-21T04:05:20.085Z,10.78
2019-05-21T04:07:50.380Z,10.95
2019-05-21T04:10:21.165Z,10.98
2019-05-21T04:13:08.897Z,11.08
2019-05-21T04:16:04.677Z,10.68
2019-05-21T04:18:46.103Z,10.53
2019-05-21T04:21:16.406Z,10.32
2019-05-21T04:23:47.117Z,10.15
2019-05-21T04:26:17.425Z,9.95
2019-05-21T04:28:48.349Z,10.13
2019-05-21T04:31:18.655Z,10.03
2019-05-21T04:33:48.953Z,9.90
2019-05-21T04:36:19.260Z,9.20
2019-05-21T04:38:49.626Z,9.75
2019-05-21T04:41:21.557Z,9.30
2019-05-21T04:44:01.257Z,8.73
2019-05-21T04:46:31.581Z,9.15
2019-05-21T04:49:01.985Z,8.20
2019-05-21T04:51:32.300Z,9.20
2019-05-21T04:54:03.294Z,8.40
2019-05-21T04:56:34.565Z,8.30
2019-05-21T04:59:04.889Z,8.90
2019-05-21T05:01:38.000Z,8.40
2019-05-21T05:04:09.840Z,8.60
2019-05-21T05:06:40.170Z,8.68
2019-05-21T05:09:11.368Z,9.13
2019-05-21T05:11:42.488Z,8.85
2019-05-21T05:14:12.816Z,8.20
2019-05-21T05:16:44.753Z,8.30
2019-05-21T05:19:15.261Z,8.40
2019-05-21T05:21:52.523Z,7.85
2019-05-21T05:24:22.895Z,8.38
2019-05-21T05:26:53.175Z,8.50
2019-05-21T05:29:24.602Z,8.25
2019-05-21T05:31:56.304Z,8.88
2019-05-21T05:34:26.992Z,8.50
2019-05-21T05:36:57.306Z,7.70
2019-05-21T05:39:29.684Z,8.70
2019-05-21T05:42:01.436Z,8.10
2019-05-21T05:44:33.809Z,7.47
2019-05-21T05:47:04.140Z,8.63
2019-05-21T05:49:40.537Z,7.97
2019-05-21T05:52:10.871Z,7.50
2019-05-21T05:54:42.946Z,7.50
2019-05-21T05:57:19.211Z,7.47
2019-05-21T05:59:49.535Z,7.67
2019-05-21T06:02:19.844Z,7.80
2019-05-21T06:04:50.169Z,7.10
2019-05-21T06:07:21.438Z,8.10
2019-05-21T06:09:52.635Z,6.95
2019-05-21T06:12:25.147Z,7.22
2019-05-21T06:14:55.428Z,6.85
2019-05-21T06:17:26.066Z,6.60
2019-05-21T06:19:56.657Z,6.60
2019-05-21T06:22:27.676Z,6.53
2019-05-21T06:24:58.039Z,6.10
2019-05-21T06:27:29.965Z,5.80
2019-05-21T06:30:00.300Z,6.37
2019-05-21T06:32:30.954Z,5.37
2019-05-21T06:35:11.859Z,5.78
2019-05-21T06:37:42.180Z,5.72
2019-05-21T06:40:13.385Z,6.00
2019-05-21T06:42:43.763Z,5.67
2019-05-21T06:45:14.774Z,5.20
2019-05-21T06:47:45.449Z,6.20
2019-05-21T06:50:15.883Z,5.05
2019-05-21T06:52:46.513Z,5.53
2019-05-21T06:55:18.527Z,5.03
2019-05-21T06:57:49.537Z,5.30
2019-05-21T07:00:21.410Z,4.92
2019-05-21T07:02:52.083Z,5.47
2019-05-21T07:05:22.715Z,4.58
2019-05-21T07:07:53.071Z,4.87
2019-05-21T07:10:33.884Z,4.97
2019-05-21T07:13:04.184Z,3.85
2019-05-21T07:15:34.473Z,4.37
2019-05-21T07:18:04.903Z,4.30
2019-05-21T07:20:37.748Z,4.35
2019-05-21T07:23:09.120Z,4.65
2019-05-21T07:25:39.412Z,4.10
2019-05-21T07:28:11.374Z,3.90
2019-05-21T07:30:41.685Z,3.85
2019-05-21T07:33:14.471Z,3.95
2019-05-21T07:35:44.857Z,3.90
2019-05-21T07:38:17.314Z,3.75
2019-05-21T07:40:48.322Z,3.87
2019-05-21T07:43:18.649Z,3.85
2019-05-21T07:45:48.871Z,4.00
2019-05-21T07:48:22.719Z,3.80
2019-05-21T07:50:55.610Z,3.83
2019-05-21T07:53:26.308Z,3.58
2019-05-21T07:55:56.674Z,3.50
2019-05-21T07:58:29.731Z,3.83
2019-05-21T08:01:01.566Z,3.70
2019-05-21T08:03:32.209Z,4.00
2019-05-21T08:06:02.872Z,4.12
2019-05-21T08:08:33.438Z,4.83
2019-05-21T08:11:05.084Z,4.42
2019-05-21T08:13:36.934Z,4.20
2019-05-21T08:16:07.260Z,3.90
2019-05-21T08:18:37.901Z,3.92
2019-05-21T08:21:11.288Z,4.20
2019-05-21T08:23:43.249Z,3.87
2019-05-21T08:26:13.689Z,4.37
2019-05-21T08:28:44.539Z,3.83
2019-05-21T08:31:14.911Z,4.17
2019-05-21T08:33:47.619Z,3.72
2019-05-21T08:36:17.926Z,3.92
2019-05-21T08:38:48.267Z,3.75
2019-05-21T08:41:18.595Z,3.47
2019-05-21T08:44:09.965Z,3.45
2019-05-21T08:46:42.044Z,3.47
2019-05-21T08:49:16.797Z,3.30
2019-05-21T08:51:47.183Z,3.58
2019-05-21T08:54:38.475Z,3.70
2019-05-21T08:57:08.874Z,3.37
2019-05-21T08:59:39.464Z,3.40
2019-05-21T09:02:12.415Z,3.67
2019-05-21T09:04:46.157Z,3.27
2019-05-21T09:07:15.406Z,3.70
2019-05-21T09:09:50.426Z,3.15
2019-05-21T09:12:18.107Z,3.87
2019-05-21T09:14:48.362Z,3.37
2019-05-21T09:17:19.835Z,3.30
2019-05-21T09:19:50.242Z,3.40
2019-05-21T09:22:20.630Z,3.70
2019-05-21T09:24:50.994Z,3.33
2019-05-21T09:27:22.798Z,3.50
2019-05-21T09:29:55.923Z,3.40
2019-05-21T09:32:32.503Z,3.20
2019-05-21T09:35:05.155Z,3.55
2019-05-21T09:37:37.529Z,3.87
2019-05-21T09:40:08.523Z,3.90
2019-05-21T09:42:39.439Z,3.90
2019-05-21T09:45:10.456Z,4.00
2019-05-21T09:47:41.563Z,3.92
2019-05-21T09:50:12.503Z,3.95
2019-05-21T09:52:48.384Z,4.10
2019-05-21T09:55:19.412Z,3.98
2019-05-21T09:58:15.831Z,3.40
2019-05-21T10:01:17.123Z,3.95
2019-05-21T10:03:56.187Z,3.35
2019-05-21T10:06:26.789Z,3.20
2019-05-21T10:08:57.251Z,3.42
2019-05-21T10:11:27.904Z,3.50
2019-05-21T10:13:58.589Z,3.72
2019-05-21T10:16:30.537Z,3.67
2019-05-21T10:19:00.851Z,3.90
2019-05-21T10:21:31.721Z,3.77
2019-05-21T10:24:02.681Z,3.80
2019-05-21T10:26:42.548Z,3.80
2019-05-21T10:29:15.165Z,3.80
2019-05-21T10:31:45.486Z,3.30
2019-05-21T10:34:15.843Z,4.15
2019-05-21T10:36:46.502Z,3.30
2019-05-21T10:39:16.879Z,3.42
2019-05-21T10:41:47.167Z,3.50
2019-05-21T10:44:17.878Z,3.62
2019-05-21T10:46:50.349Z,3.90
2019-05-21T10:49:23.347Z,4.15
2019-05-21T10:51:53.681Z,4.40
2019-05-21T10:54:24.414Z,4.00
2019-05-21T10:56:54.765Z,3.85
2019-05-21T10:59:26.955Z,3.83
2019-05-21T11:02:07.571Z,3.98
2019-05-21T11:04:42.482Z,4.22
2019-05-21T11:07:14.354Z,4.35
2019-05-21T11:09:46.516Z,4.17
2019-05-21T11:12:17.161Z,3.65
2019-05-21T11:14:47.882Z,4.05
2019-05-21T11:17:18.478Z,3.60
2019-05-21T11:19:48.927Z,3.60
2019-05-21T11:22:20.988Z,3.30
2019-05-21T11:24:52.842Z,3.65
2019-05-21T11:27:28.550Z,3.45
2019-05-21T11:29:59.722Z,3.80
2019-05-21T11:32:30.085Z,3.27
2019-05-21T11:35:00.434Z,3.77
2019-05-21T11:37:33.456Z,3.72
2019-05-21T11:40:08.487Z,3.67
2019-05-21T11:42:38.356Z,3.50
2019-05-21T11:45:10.665Z,3.95
2019-05-21T11:47:40.953Z,3.77
2019-05-21T11:50:11.752Z,3.47
2019-05-21T11:52:42.179Z,4.12
2019-05-21T11:55:12.619Z,3.17
2019-05-21T11:57:47.619Z,3.80
2019-05-21T12:00:22.915Z,3.70
2019-05-21T12:03:04.057Z,3.77
2019-05-21T12:05:35.010Z,3.42
2019-05-21T12:08:07.289Z,3.65
2019-05-21T12:10:38.065Z,3.58
2019-05-21T12:13:08.434Z,3.60
2019-05-21T12:15:38.566Z,3.65
2019-05-21T12:18:08.922Z,4.15
2019-05-21T12:20:39.347Z,3.52
2019-05-21T12:23:09.659Z,4.00
2019-05-21T12:25:42.015Z,3.67
2019-05-21T12:28:14.310Z,3.87
2019-05-21T12:30:45.547Z,3.90
2019-05-21T12:33:15.850Z,3.67
2019-05-21T12:35:46.747Z,3.60
2019-05-21T12:38:17.106Z,3.87
2019-05-21T12:40:49.398Z,4.50
2019-05-21T12:43:20.900Z,4.75
2019-05-21T12:45:51.229Z,4.30
2019-05-21T12:48:21.593Z,4.50
2019-05-21T12:50:51.964Z,4.50
2019-05-21T12:53:22.749Z,4.70
2019-05-21T12:55:53.269Z,5.00
2019-05-21T12:58:23.641Z,4.20
2019-05-21T13:00:54.032Z,4.60
2019-05-21T13:03:25.269Z,4.42
2019-05-21T13:05:56.348Z,5.45
2019-05-21T13:08:26.711Z,5.05
2019-05-21T13:11:23.876Z,4.87
2019-05-21T13:14:02.784Z,5.40
2019-05-21T13:16:39.467Z,4.97
2019-05-21T13:19:11.425Z,5.55
2019-05-21T13:21:50.061Z,5.62
2019-05-21T13:24:29.517Z,5.20
2019-05-21T13:27:11.238Z,6.00
2019-05-21T13:30:07.440Z,5.10
2019-05-21T13:32:58.661Z,4.75
2019-05-21T13:35:49.588Z,4.40
2019-05-21T13:38:32.223Z,4.17
2019-05-21T13:41:05.621Z,4.67
2019-05-21T13:43:56.460Z,4.65
2019-05-21T13:46:28.545Z,4.78
2019-05-21T13:49:09.387Z,5.08
2019-05-21T13:51:48.516Z,5.37
2019-05-21T13:54:26.046Z,4.62
2019-05-21T13:57:01.420Z,4.62
2019-05-21T13:59:56.182Z,4.45
2019-05-21T14:02:30.935Z,4.70
2019-05-21T14:05:12.592Z,4.65
2019-05-21T14:07:50.424Z,4.37
2019-05-21T14:10:23.867Z,4.67
2019-05-21T14:12:59.962Z,5.15
2019-05-21T14:15:36.493Z,4.47
2019-05-21T14:18:23.468Z,4.80
2019-05-21T14:21:02.619Z,4.62
2019-05-21T14:26:25.850Z,4.72
2019-05-21T14:28:59.937Z,4.15
2019-05-21T14:31:30.278Z,4.67
2019-05-21T14:34:00.921Z,4.35
2019-05-21T14:36:31.511Z,4.78
2019-05-21T14:39:10.098Z,5.08
2019-05-21T14:41:54.008Z,4.90
2019-05-21T14:44:24.631Z,4.72
2019-05-21T14:46:55.593Z,4.53
2019-05-21T14:49:26.657Z,4.50
2019-05-21T14:51:57.005Z,4.62
2019-05-21T14:54:27.459Z,4.50
2019-05-21T14:57:01.007Z,4.65
2019-05-21T14:59:33.013Z,4.80
2019-05-21T15:02:03.422Z,4.90
2019-05-21T15:04:35.182Z,4.78
2019-05-21T15:07:09.111Z,4.75
2019-05-21T15:09:43.633Z,4.87
2019-05-21T15:12:14.589Z,5.17
2019-05-21T15:14:48.103Z,4.53
2019-05-21T15:17:18.595Z,4.50
2019-05-21T15:19:52.368Z,4.72
2019-05-21T15:22:40.438Z,5.15
2019-05-21T15:25:11.872Z,5.42
2019-05-21T15:27:42.331Z,5.10
2019-05-21T15:30:14.081Z,5.28
2019-05-21T15:32:44.447Z,5.70
2019-05-21T15:35:15.445Z,5.28
2019-05-21T15:37:46.028Z,6.00
2019-05-21T15:40:16.788Z,5.30
2019-05-21T15:42:54.949Z,5.80
2019-05-21T15:45:32.603Z,5.28
2019-05-21T15:48:04.589Z,5.58
2019-05-21T15:50:39.411Z,5.17
2019-05-21T15:53:09.727Z,5.15
2019-05-21T15:55:41.524Z,4.95
2019-05-21T15:58:11.920Z,5.03
2019-05-21T16:00:42.347Z,4.83
2019-05-21T16:03:14.991Z,5.03
2019-05-21T16:05:45.774Z,4.20
2019-05-21T16:08:18.479Z,4.92
2019-05-21T16:10:50.219Z,5.42
2019-05-21T16:13:20.897Z,5.00
2019-05-21T16:15:54.363Z,4.83
2019-05-21T16:18:25.015Z,4.90
2019-05-21T16:20:55.351Z,5.28
2019-05-21T16:23:27.148Z,5.37
2019-05-21T16:25:57.626Z,5.60
2019-05-21T16:28:29.677Z,5.35
2019-05-21T16:31:00.130Z,5.15
2019-05-21T16:33:30.533Z,5.60
2019-05-21T16:36:00.907Z,5.33
2019-05-21T16:38:31.670Z,5.28
2019-05-21T16:41:02.692Z,5.37
2019-05-21T16:43:35.906Z,5.40
2019-05-21T16:46:06.265Z,4.97
2019-05-21T16:48:36.997Z,5.47
2019-05-21T16:51:07.636Z,5.47
2019-05-21T16:53:37.989Z,5.28
2019-05-21T16:56:10.226Z,5.33
2019-05-21T16:58:40.528Z,5.60
2019-05-21T17:01:14.211Z,6.30
2019-05-21T17:03:59.068Z,6.17
2019-05-21T17:06:20.023Z,5.65
2019-05-21T17:08:52.601Z,5.97
2019-05-21T17:11:26.191Z,5.58
2019-05-21T17:14:00.440Z,5.45
2019-05-21T17:16:30.914Z,5.90
2019-05-21T17:19:02.112Z,5.45
2019-05-21T17:21:32.462Z,7.03
2019-05-21T17:24:02.827Z,6.00
2019-05-21T17:26:33.233Z,5.65
2019-05-21T17:29:03.579Z,5.67
2019-05-21T17:31:33.955Z,5.70
2019-05-21T17:34:05.588Z,5.75
2019-05-21T17:36:35.928Z,5.75
2019-05-21T17:39:08.123Z,5.75
2019-05-21T17:41:38.501Z,6.03
2019-05-21T17:44:08.817Z,6.05
2019-05-21T17:46:47.103Z,6.10
2019-05-21T17:49:17.465Z,6.47
2019-05-21T17:51:51.456Z,6.28
2019-05-21T17:54:24.866Z,6.20
2019-05-21T17:56:59.013Z,5.80
2019-05-21T17:59:29.491Z,6.12
2019-05-21T18:02:01.161Z,6.45
2019-05-21T18:04:31.684Z,6.30
2019-05-21T18:07:03.922Z,6.40
2019-05-21T18:09:35.892Z,6.67
2019-05-21T18:12:08.489Z,5.65
2019-05-21T18:14:39.091Z,6.40
2019-05-21T18:17:13.486Z,5.50
2019-05-21T18:19:46.256Z,6.62
2019-05-21T18:22:18.217Z,6.50
2019-05-21T18:24:51.390Z,7.95
2019-05-21T18:27:24.139Z,7.10
2019-05-21T18:29:54.430Z,7.45
2019-05-21T18:32:24.740Z,7.67
2019-05-21T18:34:55.083Z,7.12
2019-05-21T18:37:26.196Z,7.25
2019-05-21T18:39:58.622Z,7.75
2019-05-21T18:42:30.478Z,7.37
2019-05-21T18:45:01.897Z,6.87
2019-05-21T18:47:33.829Z,6.15
2019-05-21T18:50:04.857Z,6.92
2019-05-21T18:52:35.639Z,7.22
2019-05-21T18:55:06.350Z,6.90
2019-05-21T18:57:37.530Z,7.10
2019-05-21T19:00:08.769Z,7.47
2019-05-21T19:02:39.057Z,6.72
2019-05-21T19:05:09.712Z,7.28
2019-05-21T19:07:42.671Z,6.95
2019-05-21T19:10:15.793Z,7.47
2019-05-21T19:12:48.540Z,7.22
2019-05-21T19:15:21.697Z,7.37
2019-05-21T19:17:52.059Z,7.72
2019-05-21T19:20:23.996Z,7.80
2019-05-21T19:22:56.578Z,7.72
2019-05-21T19:25:32.891Z,8.03
2019-05-21T19:28:08.770Z,7.60
2019-05-21T19:30:41.435Z,7.65
2019-05-21T19:33:11.767Z,7.60
2019-05-21T19:35:42.253Z,8.48
2019-05-21T19:38:12.666Z,8.25
2019-05-21T19:40:45.262Z,8.68
2019-05-21T19:43:15.622Z,8.60
2019-05-21T19:45:46.728Z,8.13
2019-05-21T19:48:17.083Z,8.58
2019-05-21T19:50:49.492Z,9.25
2019-05-21T19:53:21.055Z,8.38
2019-05-21T19:55:51.496Z,8.48
2019-05-21T19:58:22.107Z,8.75
2019-05-21T20:00:54.872Z,9.10
2019-05-21T20:03:25.633Z,9.28
2019-05-21T20:05:56.306Z,8.70
2019-05-21T20:08:31.766Z,9.00
2019-05-21T20:11:02.550Z,8.63
2019-05-21T20:13:34.305Z,8.75
2019-05-21T20:16:05.912Z,9.13
2019-05-21T20:18:36.269Z,8.93
2019-05-21T20:21:08.819Z,9.63
2019-05-21T20:23:39.962Z,9.33
2019-05-21T20:26:18.530Z,9.58
2019-05-21T20:28:49.034Z,9.58
2019-05-21T20:31:20.922Z,9.60
2019-05-21T20:33:53.786Z,9.75
2019-05-21T20:36:24.194Z,9.33
2019-05-21T20:38:56.126Z,9.48
2019-05-21T20:41:26.551Z,9.43
2019-05-21T20:44:00.573Z,9.63
2019-05-21T20:46:32.578Z,9.63
2019-05-21T20:49:03.842Z,10.08
2019-05-21T20:51:34.714Z,10.18
2019-05-21T20:54:11.187Z,8.90
2019-05-21T20:56:41.956Z,9.88
2019-05-21T20:59:12.624Z,9.98
2019-05-21T21:01:43.429Z,9.68
2019-05-21T21:04:13.845Z,9.95
2019-05-21T21:06:45.245Z,9.98
2019-05-21T21:09:15.562Z,9.83
2019-05-21T21:11:46.685Z,10.63
2019-05-21T21:14:20.434Z,9.60
2019-05-21T21:16:50.607Z,9.65
2019-05-21T21:19:20.958Z,10.15
2019-05-21T21:21:52.373Z,10.05
2019-05-21T21:24:22.704Z,9.45
2019-05-21T21:26:53.426Z,9.80
2019-05-21T21:29:24.735Z,10.05
2019-05-21T21:31:55.138Z,10.72
2019-05-21T21:34:37.929Z,9.75
2019-05-21T21:37:09.034Z,10.05
2019-05-21T21:39:40.288Z,10.58
2019-05-21T21:42:11.146Z,10.65
2019-05-21T21:44:46.504Z,10.50
2019-05-21T21:47:18.215Z,10.03
2019-05-21T21:49:50.089Z,10.10
2019-05-21T21:52:20.575Z,10.55
2019-05-21T21:54:51.000Z,10.75
2019-05-21T21:57:21.352Z,10.43
2019-05-21T21:59:52.405Z,10.75
2019-05-21T22:02:32.496Z,11.20
2019-05-21T22:05:03.145Z,11.10
2019-05-21T22:07:35.427Z,11.05
2019-05-21T22:10:08.373Z,10.93
2019-05-21T22:12:38.951Z,10.55
2019-05-21T22:15:09.918Z,10.82
2019-05-21T22:17:41.312Z,10.58
2019-05-21T22:20:13.875Z,10.80
2019-05-21T22:22:49.848Z,11.03
2019-05-21T22:25:27.945Z,10.65
2019-05-21T22:28:02.084Z,10.78
2019-05-21T22:30:34.235Z,10.98
2019-05-21T22:33:04.630Z,11.38
2019-05-21T22:35:35.276Z,10.72
2019-05-21T22:38:07.610Z,10.28
2019-05-21T22:40:39.147Z,11.03
2019-05-21T22:43:09.925Z,11.20
2019-05-21T22:45:43.034Z,11.60
2019-05-21T22:48:13.909Z,11.25
2019-05-21T22:50:44.200Z,11.83
2019-05-21T22:53:16.780Z,11.28
2019-05-21T22:55:47.179Z,11.43
2019-05-21T22:58:17.599Z,11.65
2019-05-21T23:00:47.894Z,12.00
2019-05-21T23:03:18.258Z,11.65
2019-05-21T23:05:48.607Z,12.40
2019-05-21T23:08:19.603Z,11.78
2019-05-21T23:10:50.246Z,11.97
2019-05-21T23:13:24.431Z,11.28
2019-05-21T23:15:55.640Z,11.40
2019-05-21T23:18:26.034Z,12.05
2019-05-21T23:20:59.141Z,12.15
2019-05-21T23:23:31.318Z,11.60
2019-05-21T23:26:02.493Z,11.97
2019-05-21T23:28:34.548Z,11.93
2019-05-21T23:31:06.209Z,11.73
2019-05-21T23:33:37.649Z,12.50
2019-05-21T23:36:08.170Z,11.57
2019-05-21T23:38:39.247Z,12.00
2019-05-21T23:41:11.045Z,11.43
2019-05-21T23:43:41.374Z,12.03
2019-05-21T23:46:15.856Z,11.68
2019-05-21T23:48:46.593Z,12.43
2019-05-21T23:51:18.695Z,12.30
2019-05-21T23:53:49.351Z,12.15
2019-05-21T23:56:19.765Z,12.75
2019-05-21T23:58:51.143Z,12.05
